Cincinnati, OH

9:35 AM EST on December 21, 2014 (GMT -0500)
The Compound, White Oak | Change Station
CLOSE
Current Station
Personal Weather Station
Location: Cincinnati, OH
Elevation: 901 ft
Nearby Weather Stations

Elev 901 ft 39.20 °N, 84.61 °W | Updated 6 seconds ago

Partly Cloudy
Partly Cloudy
28.6 °F
Feels Like 29 °F
N
0.0
Wind Variable Wind from East
Gusts 0.0 mph

Today
High -- | Low -- °F
--% Chance of Precip.
Yesterday
High -- | Low -- °F
Precip. -- in
7:53 AM 5:18 PM
Waning Crescent, 0% visible
Pressure 30.35 in
Visibility 6.0 miles
Clouds Mostly Cloudy 2000 ft
Windchill 29 °F
Dew Point 25 °F
Humidity 87%
Rainfall 0.00 in
Snow Depth Not available.
UV 0 out of 12
Pollen .10 out of 12
Air Quality Not available.
Flu Activity Not available.
SPECI KLUK 211416Z 00000KT 6SM HZ BKN020 M03/M04 A3035 RMK AO2 T10331044

More Conditions Fewer Conditions

Pressure 30.35 in
Visibility 6.0 miles
Clouds Mostly Cloudy 2000 ft
Windchill 29 °F
Dew Point 25 °F
Humidity 87%
Rainfall 0.00 in
Snow Depth Not available.
UV 0 out of 12
Pollen .10 out of 12
Air Quality Not available.
Flu Activity Not available.
SPECI KLUK 211416Z 00000KT 6SM HZ BKN020 M03/M04 A3035 RMK AO2 T10331044

More Conditions Fewer Conditions

10-Day Weather Forecast

Almanac

Astronomy

Dec. 21, 2014 Rise Set
Actual Time
Civil Twilight
Nautical Twilight
Astronomical Twilight
Moon
Length of Visible Light
Length of Day
Tomorrow will be .
, % of the Moon is Illuminated

Today's Extremes

State Highs State Lows

Community

WunderPhotos

Upload Photos

1,779,395 photos uploaded!

WunderBlogs® & News

Nearby

Air Quality

  Air Quality AQ Index Pollutant
Not available.

Snow Depth

Station Depth Elevation

Earthquake Activity

City Distance Mag. Time & Date
Minimum magnitude displayed is 2.5.

Coastal Water Temperatures

Place Temperature

Nearby Weather Stations